Union Grove, Louisiana
Current Conditions -  °F | °C
As of 6:15 AM on Sunday 25 Jan 2015 (Local Time) from KIER Reporting Station
Clear Clear  
Wind Chill: 39°   Ceiling: Unl
Heat Index: 39°   Visibility: 10mi
Dew Point: 36°   Wind: 3mph
Humidity: 88%   Direction: 210°SSW
Pressure: 29.96"   Gusts: NA
Location:  31.6668°N, 92.8023°W
Report Text: KIER 251215Z AUTO 21003KT 10SM CLR 04/02 A2996 RMK AO2 T00410023
Loading
Personal Weather Stations






























Interactive Weather Map New forecast layout! Learn more

10-Day Weather Forecast

Advertisements
Track Severe Weather on mobile